KPVE

Beech River Regional Airport

Lexington-Parsons, Tennessee, USA
METAR KPVE 170235Z AUTO 34004KT 9SM BKN003 OVC050 10/09 A3026 RMK A01
Observed Flight Rules
Oct-17 @ 02:35 UTC (34 minutes ago) Instrument Flight Rules
Wind Visibility Clouds
340° at 4 knots 9 miles
  • Broken at 300' AGL
  • Overcast at 5,000' AGL
Temperatures Readings
Current 10°C / 50°F
Dewpoint 9°C / 48°F
Humidity 94%
Altimeter 30.26" Hg
Pressure 1025 hPa
Elevation 149
METAR KPVE 170235Z AUTO 34004KT 9SM BKN003 OVC050 10/09 A3026 RMK A01
Observed Flight Rules
Oct-17 @ 02:35 UTC
(34 minutes ago)
LIFR
Wind Visibility
340° at 4 knots 9 miles
Clouds
  • Broken at 300' AGL
  • Overcast at 5,000' AGL
Temperature Dewpoint
10°C / 50°F 9°C / 48°F
Humidity Altimeter Pressure
94% 30.26" Hg 1025 hPa